sensor_id;sensor_type;location;lat;lon;timestamp;P1;durP1;ratioP1;P2;durP2;ratioP2
1699;SDS011;847;48.058;7.810;2023-05-07T00:02:06;4.20;;;3.50;;
1699;SDS011;847;48.058;7.810;2023-05-07T00:04:33;3.83;;;3.50;;
1699;SDS011;847;48.058;7.810;2023-05-07T00:07:02;3.53;;;3.23;;
1699;SDS011;847;48.058;7.810;2023-05-07T00:09:29;3.20;;;2.90;;
1699;SDS011;847;48.058;7.810;2023-05-07T00:11:56;3.57;;;3.07;;
1699;SDS011;847;48.058;7.810;2023-05-07T00:14:23;4.50;;;3.43;;
1699;SDS011;847;48.058;7.810;2023-05-07T00:16:51;7.70;;;3.40;;
1699;SDS011;847;48.058;7.810;2023-05-07T00:19:18;4.10;;;3.30;;
1699;SDS011;847;48.058;7.810;2023-05-07T00:21:44;4.90;;;3.70;;
1699;SDS011;847;48.058;7.810;2023-05-07T00:24:11;5.03;;;3.33;;
1699;SDS011;847;48.058;7.810;2023-05-07T00:26:38;4.17;;;3.77;;
1699;SDS011;847;48.058;7.810;2023-05-07T00:29:05;4.00;;;3.60;;
1699;SDS011;847;48.058;7.810;2023-05-07T00:31:31;4.23;;;3.80;;
1699;SDS011;847;48.058;7.810;2023-05-07T00:33:59;3.70;;;3.33;;
1699;SDS011;847;48.058;7.810;2023-05-07T00:36:26;3.60;;;3.30;;
1699;SDS011;847;48.058;7.810;2023-05-07T00:38:54;3.40;;;3.13;;
1699;SDS011;847;48.058;7.810;2023-05-07T00:41:23;4.20;;;3.30;;
1699;SDS011;847;48.058;7.810;2023-05-07T00:43:50;5.33;;;3.53;;
1699;SDS011;847;48.058;7.810;2023-05-07T00:46:17;3.93;;;3.30;;
1699;SDS011;847;48.058;7.810;2023-05-07T00:48:46;3.80;;;3.40;;
1699;SDS011;847;48.058;7.810;2023-05-07T00:51:15;6.43;;;3.70;;
1699;SDS011;847;48.058;7.810;2023-05-07T00:53:43;4.27;;;3.40;;
1699;SDS011;847;48.058;7.810;2023-05-07T00:56:10;3.77;;;3.47;;
1699;SDS011;847;48.058;7.810;2023-05-07T00:58:37;3.70;;;3.40;;
1699;SDS011;847;48.058;7.810;2023-05-07T01:01:04;4.00;;;3.70;;
1699;SDS011;847;48.058;7.810;2023-05-07T01:03:31;3.10;;;2.80;;
1699;SDS011;847;48.058;7.810;2023-05-07T01:05:58;3.83;;;3.43;;
1699;SDS011;847;48.058;7.810;2023-05-07T01:08:27;4.50;;;3.33;;
1699;SDS011;847;48.058;7.810;2023-05-07T01:10:55;4.20;;;3.37;;
1699;SDS011;847;48.058;7.810;2023-05-07T01:13:23;4.10;;;3.70;;
1699;SDS011;847;48.058;7.810;2023-05-07T01:15:50;3.73;;;3.37;;
1699;SDS011;847;48.058;7.810;2023-05-07T01:18:17;2.90;;;2.70;;
1699;SDS011;847;48.058;7.810;2023-05-07T01:20:44;3.67;;;3.30;;
1699;SDS011;847;48.058;7.810;2023-05-07T01:23:12;4.27;;;3.07;;
1699;SDS011;847;48.058;7.810;2023-05-07T01:25:40;4.00;;;3.57;;
1699;SDS011;847;48.058;7.810;2023-05-07T01:28:06;4.27;;;3.87;;
1699;SDS011;847;48.058;7.810;2023-05-07T01:30:33;2.97;;;2.67;;
1699;SDS011;847;48.058;7.810;2023-05-07T01:33:02;3.10;;;2.87;;
1699;SDS011;847;48.058;7.810;2023-05-07T01:35:33;4.27;;;3.30;;
1699;SDS011;847;48.058;7.810;2023-05-07T01:38:03;3.87;;;3.40;;
1699;SDS011;847;48.058;7.810;2023-05-07T01:40:32;4.07;;;3.00;;
1699;SDS011;847;48.058;7.810;2023-05-07T01:43:00;4.47;;;4.07;;
1699;SDS011;847;48.058;7.810;2023-05-07T01:45:28;5.73;;;3.37;;
1699;SDS011;847;48.058;7.810;2023-05-07T01:47:56;8.33;;;3.30;;
1699;SDS011;847;48.058;7.810;2023-05-07T01:50:24;5.10;;;2.93;;
1699;SDS011;847;48.058;7.810;2023-05-07T01:52:52;4.13;;;3.03;;
1699;SDS011;847;48.058;7.810;2023-05-07T01:55:19;3.30;;;3.00;;
1699;SDS011;847;48.058;7.810;2023-05-07T01:57:47;5.03;;;3.83;;
1699;SDS011;847;48.058;7.810;2023-05-07T02:00:14;3.97;;;3.20;;
1699;SDS011;847;48.058;7.810;2023-05-07T02:02:41;3.60;;;3.30;;
1699;SDS011;847;48.058;7.810;2023-05-07T02:05:08;4.63;;;3.50;;
1699;SDS011;847;48.058;7.810;2023-05-07T02:07:35;3.60;;;3.30;;
1699;SDS011;847;48.058;7.810;2023-05-07T02:10:01;3.60;;;3.30;;
1699;SDS011;847;48.058;7.810;2023-05-07T02:12:29;3.93;;;3.63;;
1699;SDS011;847;48.058;7.810;2023-05-07T02:14:57;3.73;;;3.40;;
1699;SDS011;847;48.058;7.810;2023-05-07T02:17:23;4.20;;;3.60;;
1699;SDS011;847;48.058;7.810;2023-05-07T02:19:50;4.83;;;3.50;;
1699;SDS011;847;48.058;7.810;2023-05-07T02:22:17;6.60;;;4.37;;
1699;SDS011;847;48.058;7.810;2023-05-07T02:24:44;4.27;;;3.57;;
1699;SDS011;847;48.058;7.810;2023-05-07T02:27:10;4.90;;;3.47;;
1699;SDS011;847;48.058;7.810;2023-05-07T02:29:37;5.97;;;3.77;;
1699;SDS011;847;48.058;7.810;2023-05-07T02:32:05;4.27;;;3.30;;
1699;SDS011;847;48.058;7.810;2023-05-07T02:34:32;3.27;;;3.07;;
1699;SDS011;847;48.058;7.810;2023-05-07T02:36:59;3.67;;;3.37;;
1699;SDS011;847;48.058;7.810;2023-05-07T02:39:25;4.60;;;4.10;;
1699;SDS011;847;48.058;7.810;2023-05-07T02:41:52;4.20;;;3.17;;
1699;SDS011;847;48.058;7.810;2023-05-07T02:44:19;4.63;;;4.00;;
1699;SDS011;847;48.058;7.810;2023-05-07T02:46:45;4.67;;;4.17;;
1699;SDS011;847;48.058;7.810;2023-05-07T02:49:14;3.70;;;3.40;;
1699;SDS011;847;48.058;7.810;2023-05-07T02:51:40;4.07;;;3.60;;
1699;SDS011;847;48.058;7.810;2023-05-07T02:54:07;5.00;;;3.57;;
1699;SDS011;847;48.058;7.810;2023-05-07T02:56:36;3.97;;;3.57;;
1699;SDS011;847;48.058;7.810;2023-05-07T02:59:03;4.20;;;3.90;;
1699;SDS011;847;48.058;7.810;2023-05-07T03:01:30;6.80;;;4.30;;
1699;SDS011;847;48.058;7.810;2023-05-07T03:03:57;5.67;;;3.80;;
1699;SDS011;847;48.058;7.810;2023-05-07T03:06:25;4.60;;;3.43;;
1699;SDS011;847;48.058;7.810;2023-05-07T03:08:52;4.10;;;3.70;;
1699;SDS011;847;48.058;7.810;2023-05-07T03:11:18;5.53;;;3.90;;
1699;SDS011;847;48.058;7.810;2023-05-07T03:13:45;5.47;;;3.90;;
1699;SDS011;847;48.058;7.810;2023-05-07T03:16:14;7.33;;;3.90;;
1699;SDS011;847;48.058;7.810;2023-05-07T03:18:41;5.13;;;3.67;;
1699;SDS011;847;48.058;7.810;2023-05-07T03:21:08;6.13;;;4.23;;
1699;SDS011;847;48.058;7.810;2023-05-07T03:23:36;5.13;;;4.40;;
1699;SDS011;847;48.058;7.810;2023-05-07T03:26:03;4.17;;;3.43;;
1699;SDS011;847;48.058;7.810;2023-05-07T03:28:29;5.47;;;3.90;;
1699;SDS011;847;48.058;7.810;2023-05-07T03:30:56;5.20;;;3.87;;
1699;SDS011;847;48.058;7.810;2023-05-07T03:33:23;5.57;;;3.93;;
1699;SDS011;847;48.058;7.810;2023-05-07T03:35:50;4.40;;;3.80;;
1699;SDS011;847;48.058;7.810;2023-05-07T03:38:17;5.23;;;3.63;;
1699;SDS011;847;48.058;7.810;2023-05-07T03:40:45;4.43;;;3.47;;
1699;SDS011;847;48.058;7.810;2023-05-07T03:43:11;4.10;;;3.70;;
1699;SDS011;847;48.058;7.810;2023-05-07T03:45:38;3.33;;;3.03;;
1699;SDS011;847;48.058;7.810;2023-05-07T03:48:05;4.03;;;3.73;;
1699;SDS011;847;48.058;7.810;2023-05-07T03:50:31;5.73;;;3.90;;
1699;SDS011;847;48.058;7.810;2023-05-07T03:52:58;4.17;;;3.60;;
1699;SDS011;847;48.058;7.810;2023-05-07T03:55:25;5.77;;;3.40;;
1699;SDS011;847;48.058;7.810;2023-05-07T03:57:53;3.57;;;3.30;;
1699;SDS011;847;48.058;7.810;2023-05-07T04:00:21;4.63;;;4.20;;
1699;SDS011;847;48.058;7.810;2023-05-07T04:02:48;5.03;;;4.00;;
1699;SDS011;847;48.058;7.810;2023-05-07T04:05:15;4.40;;;4.10;;
1699;SDS011;847;48.058;7.810;2023-05-07T04:07:41;5.13;;;4.30;;
1699;SDS011;847;48.058;7.810;2023-05-07T04:10:09;4.80;;;4.17;;
1699;SDS011;847;48.058;7.810;2023-05-07T04:12:36;5.73;;;4.27;;
1699;SDS011;847;48.058;7.810;2023-05-07T04:15:04;6.53;;;3.90;;
1699;SDS011;847;48.058;7.810;2023-05-07T04:17:32;4.90;;;4.27;;
1699;SDS011;847;48.058;7.810;2023-05-07T04:19:58;5.73;;;3.80;;
1699;SDS011;847;48.058;7.810;2023-05-07T04:22:25;4.93;;;4.53;;
1699;SDS011;847;48.058;7.810;2023-05-07T04:24:52;4.40;;;4.00;;
1699;SDS011;847;48.058;7.810;2023-05-07T04:27:19;8.30;;;3.90;;
1699;SDS011;847;48.058;7.810;2023-05-07T04:29:46;4.20;;;3.80;;
1699;SDS011;847;48.058;7.810;2023-05-07T04:32:14;4.50;;;4.10;;
1699;SDS011;847;48.058;7.810;2023-05-07T04:34:41;7.50;;;3.93;;
1699;SDS011;847;48.058;7.810;2023-05-07T04:37:07;7.33;;;4.50;;
1699;SDS011;847;48.058;7.810;2023-05-07T04:39:34;4.87;;;4.37;;
1699;SDS011;847;48.058;7.810;2023-05-07T04:42:01;4.90;;;4.47;;
1699;SDS011;847;48.058;7.810;2023-05-07T04:44:28;6.73;;;3.90;;
1699;SDS011;847;48.058;7.810;2023-05-07T04:46:56;6.87;;;5.17;;
1699;SDS011;847;48.058;7.810;2023-05-07T04:49:24;4.33;;;3.93;;
1699;SDS011;847;48.058;7.810;2023-05-07T04:51:50;8.57;;;4.30;;
1699;SDS011;847;48.058;7.810;2023-05-07T04:54:17;6.43;;;4.33;;
1699;SDS011;847;48.058;7.810;2023-05-07T04:56:44;5.30;;;4.00;;
1699;SDS011;847;48.058;7.810;2023-05-07T04:59:10;6.00;;;4.50;;
1699;SDS011;847;48.058;7.810;2023-05-07T05:01:37;4.57;;;4.13;;
1699;SDS011;847;48.058;7.810;2023-05-07T05:04:05;4.37;;;3.97;;
1699;SDS011;847;48.058;7.810;2023-05-07T05:06:33;4.73;;;4.33;;
1699;SDS011;847;48.058;7.810;2023-05-07T05:09:00;5.97;;;4.40;;
1699;SDS011;847;48.058;7.810;2023-05-07T05:11:26;4.47;;;4.07;;
1699;SDS011;847;48.058;7.810;2023-05-07T05:13:53;5.07;;;4.57;;
1699;SDS011;847;48.058;7.810;2023-05-07T05:16:20;5.40;;;4.97;;
1699;SDS011;847;48.058;7.810;2023-05-07T05:18:46;4.80;;;4.30;;
1699;SDS011;847;48.058;7.810;2023-05-07T05:21:13;5.90;;;5.20;;
1699;SDS011;847;48.058;7.810;2023-05-07T05:23:41;7.00;;;5.03;;
1699;SDS011;847;48.058;7.810;2023-05-07T05:26:08;5.93;;;5.43;;
1699;SDS011;847;48.058;7.810;2023-05-07T05:28:35;5.80;;;5.20;;
1699;SDS011;847;48.058;7.810;2023-05-07T05:31:02;5.30;;;4.80;;
1699;SDS011;847;48.058;7.810;2023-05-07T05:33:28;5.77;;;5.27;;
1699;SDS011;847;48.058;7.810;2023-05-07T05:35:55;5.70;;;5.03;;
1699;SDS011;847;48.058;7.810;2023-05-07T05:38:22;5.13;;;4.63;;
1699;SDS011;847;48.058;7.810;2023-05-07T05:40:50;6.03;;;5.43;;
1699;SDS011;847;48.058;7.810;2023-05-07T05:43:16;6.30;;;5.70;;
1699;SDS011;847;48.058;7.810;2023-05-07T05:45:43;6.03;;;5.53;;
1699;SDS011;847;48.058;7.810;2023-05-07T05:48:10;5.87;;;5.27;;
1699;SDS011;847;48.058;7.810;2023-05-07T05:50:36;5.90;;;5.30;;
1699;SDS011;847;48.058;7.810;2023-05-07T05:53:03;5.40;;;4.90;;
1699;SDS011;847;48.058;7.810;2023-05-07T05:55:30;6.77;;;5.67;;
1699;SDS011;847;48.058;7.810;2023-05-07T05:57:59;6.63;;;5.80;;
1699;SDS011;847;48.058;7.810;2023-05-07T06:00:26;5.57;;;5.17;;
1699;SDS011;847;48.058;7.810;2023-05-07T06:02:53;6.50;;;5.20;;
1699;SDS011;847;48.058;7.810;2023-05-07T06:05:19;5.67;;;5.07;;
1699;SDS011;847;48.058;7.810;2023-05-07T06:07:46;5.80;;;5.20;;
1699;SDS011;847;48.058;7.810;2023-05-07T06:10:13;6.00;;;5.50;;
1699;SDS011;847;48.058;7.810;2023-05-07T06:12:40;6.57;;;5.50;;
1699;SDS011;847;48.058;7.810;2023-05-07T06:15:08;7.53;;;5.20;;
1699;SDS011;847;48.058;7.810;2023-05-07T06:17:35;5.77;;;5.27;;
1699;SDS011;847;48.058;7.810;2023-05-07T06:20:02;5.90;;;5.40;;
1699;SDS011;847;48.058;7.810;2023-05-07T06:22:30;7.90;;;5.67;;
1699;SDS011;847;48.058;7.810;2023-05-07T06:24:56;9.23;;;6.67;;
1699;SDS011;847;48.058;7.810;2023-05-07T06:27:23;7.97;;;6.60;;
1699;SDS011;847;48.058;7.810;2023-05-07T06:29:50;7.53;;;6.60;;
1699;SDS011;847;48.058;7.810;2023-05-07T06:32:18;7.30;;;6.60;;
1699;SDS011;847;48.058;7.810;2023-05-07T06:34:45;8.60;;;7.53;;
1699;SDS011;847;48.058;7.810;2023-05-07T06:37:12;7.97;;;7.17;;
1699;SDS011;847;48.058;7.810;2023-05-07T06:39:38;9.47;;;7.87;;
1699;SDS011;847;48.058;7.810;2023-05-07T06:42:05;9.80;;;8.20;;
1699;SDS011;847;48.058;7.810;2023-05-07T06:44:32;8.37;;;7.50;;
1699;SDS011;847;48.058;7.810;2023-05-07T06:46:58;8.23;;;7.50;;
1699;SDS011;847;48.058;7.810;2023-05-07T06:49:27;8.10;;;7.40;;
1699;SDS011;847;48.058;7.810;2023-05-07T06:51:53;12.30;;;7.57;;
1699;SDS011;847;48.058;7.810;2023-05-07T06:54:20;10.83;;;7.93;;
1699;SDS011;847;48.058;7.810;2023-05-07T06:56:47;10.83;;;9.73;;
1699;SDS011;847;48.058;7.810;2023-05-07T06:59:14;9.13;;;8.17;;
1699;SDS011;847;48.058;7.810;2023-05-07T07:01:40;8.57;;;7.77;;
1699;SDS011;847;48.058;7.810;2023-05-07T07:04:07;8.17;;;7.47;;
1699;SDS011;847;48.058;7.810;2023-05-07T07:06:35;9.37;;;8.27;;
1699;SDS011;847;48.058;7.810;2023-05-07T07:09:02;7.97;;;7.17;;
1699;SDS011;847;48.058;7.810;2023-05-07T07:11:29;8.70;;;7.90;;
1699;SDS011;847;48.058;7.810;2023-05-07T07:13:55;8.60;;;7.80;;
1699;SDS011;847;48.058;7.810;2023-05-07T07:16:22;9.60;;;8.53;;
1699;SDS011;847;48.058;7.810;2023-05-07T07:18:49;9.43;;;8.53;;
1699;SDS011;847;48.058;7.810;2023-05-07T07:21:16;10.23;;;8.47;;
1699;SDS011;847;48.058;7.810;2023-05-07T07:23:44;8.50;;;7.00;;
1699;SDS011;847;48.058;7.810;2023-05-07T07:26:11;8.13;;;7.10;;
1699;SDS011;847;48.058;7.810;2023-05-07T07:28:41;6.93;;;6.23;;
1699;SDS011;847;48.058;7.810;2023-05-07T07:31:08;8.53;;;6.93;;
1699;SDS011;847;48.058;7.810;2023-05-07T07:33:35;9.03;;;8.10;;
1699;SDS011;847;48.058;7.810;2023-05-07T07:36:02;9.77;;;7.07;;
1699;SDS011;847;48.058;7.810;2023-05-07T07:38:30;7.50;;;6.80;;
1699;SDS011;847;48.058;7.810;2023-05-07T07:40:58;9.63;;;7.30;;
1699;SDS011;847;48.058;7.810;2023-05-07T07:43:25;12.00;;;8.10;;
1699;SDS011;847;48.058;7.810;2023-05-07T07:45:51;8.40;;;7.23;;
1699;SDS011;847;48.058;7.810;2023-05-07T07:48:18;6.90;;;6.40;;
1699;SDS011;847;48.058;7.810;2023-05-07T07:50:45;6.73;;;6.20;;
1699;SDS011;847;48.058;7.810;2023-05-07T07:53:15;8.77;;;6.67;;
1699;SDS011;847;48.058;7.810;2023-05-07T07:55:41;8.47;;;7.63;;
1699;SDS011;847;48.058;7.810;2023-05-07T07:58:09;7.37;;;6.67;;
1699;SDS011;847;48.058;7.810;2023-05-07T08:00:36;7.30;;;6.60;;
1699;SDS011;847;48.058;7.810;2023-05-07T08:03:03;7.33;;;6.73;;
1699;SDS011;847;48.058;7.810;2023-05-07T08:05:31;9.40;;;7.27;;
1699;SDS011;847;48.058;7.810;2023-05-07T08:07:58;9.57;;;6.50;;
1699;SDS011;847;48.058;7.810;2023-05-07T08:10:24;7.00;;;6.40;;
1699;SDS011;847;48.058;7.810;2023-05-07T08:12:51;7.60;;;6.90;;
1699;SDS011;847;48.058;7.810;2023-05-07T08:15:19;7.43;;;6.40;;
1699;SDS011;847;48.058;7.810;2023-05-07T08:17:46;9.33;;;6.40;;
1699;SDS011;847;48.058;7.810;2023-05-07T08:20:13;6.47;;;5.93;;
1699;SDS011;847;48.058;7.810;2023-05-07T08:22:40;7.47;;;6.20;;
1699;SDS011;847;48.058;7.810;2023-05-07T08:25:07;6.10;;;5.40;;
1699;SDS011;847;48.058;7.810;2023-05-07T08:27:34;6.47;;;5.97;;
1699;SDS011;847;48.058;7.810;2023-05-07T08:30:01;6.30;;;5.70;;
1699;SDS011;847;48.058;7.810;2023-05-07T08:32:29;9.17;;;6.63;;
1699;SDS011;847;48.058;7.810;2023-05-07T08:34:56;6.23;;;5.63;;
1699;SDS011;847;48.058;7.810;2023-05-07T08:37:23;6.30;;;5.57;;
1699;SDS011;847;48.058;7.810;2023-05-07T08:39:50;6.50;;;5.90;;
1699;SDS011;847;48.058;7.810;2023-05-07T08:42:16;7.10;;;6.20;;
1699;SDS011;847;48.058;7.810;2023-05-07T08:44:44;9.30;;;6.40;;
1699;SDS011;847;48.058;7.810;2023-05-07T08:47:12;6.67;;;6.07;;
1699;SDS011;847;48.058;7.810;2023-05-07T08:49:40;7.60;;;6.90;;
1699;SDS011;847;48.058;7.810;2023-05-07T08:52:08;8.37;;;6.63;;
1699;SDS011;847;48.058;7.810;2023-05-07T08:54:34;7.53;;;6.80;;
1699;SDS011;847;48.058;7.810;2023-05-07T08:57:03;6.70;;;6.10;;
1699;SDS011;847;48.058;7.810;2023-05-07T08:59:30;9.20;;;6.97;;
1699;SDS011;847;48.058;7.810;2023-05-07T09:01:57;8.50;;;7.70;;
1699;SDS011;847;48.058;7.810;2023-05-07T09:04:23;8.33;;;6.50;;
1699;SDS011;847;48.058;7.810;2023-05-07T09:06:52;7.30;;;6.60;;
1699;SDS011;847;48.058;7.810;2023-05-07T09:09:18;8.17;;;7.40;;
1699;SDS011;847;48.058;7.810;2023-05-07T09:11:47;8.00;;;6.97;;
1699;SDS011;847;48.058;7.810;2023-05-07T09:14:14;7.67;;;6.30;;
1699;SDS011;847;48.058;7.810;2023-05-07T09:16:40;7.23;;;6.10;;
1699;SDS011;847;48.058;7.810;2023-05-07T09:19:07;9.57;;;6.90;;
1699;SDS011;847;48.058;7.810;2023-05-07T09:21:34;7.80;;;6.70;;
1699;SDS011;847;48.058;7.810;2023-05-07T09:24:03;6.93;;;6.33;;
1699;SDS011;847;48.058;7.810;2023-05-07T09:26:30;7.73;;;7.00;;
1699;SDS011;847;48.058;7.810;2023-05-07T09:28:58;6.40;;;5.90;;
1699;SDS011;847;48.058;7.810;2023-05-07T09:31:24;6.13;;;5.63;;
1699;SDS011;847;48.058;7.810;2023-05-07T09:33:52;7.53;;;6.80;;
1699;SDS011;847;48.058;7.810;2023-05-07T09:36:20;9.30;;;6.70;;
1699;SDS011;847;48.058;7.810;2023-05-07T09:38:47;6.33;;;5.80;;
1699;SDS011;847;48.058;7.810;2023-05-07T09:41:16;6.00;;;5.30;;
1699;SDS011;847;48.058;7.810;2023-05-07T09:43:43;7.43;;;6.73;;
1699;SDS011;847;48.058;7.810;2023-05-07T09:46:11;7.97;;;7.17;;
1699;SDS011;847;48.058;7.810;2023-05-07T09:48:41;6.93;;;6.33;;
1699;SDS011;847;48.058;7.810;2023-05-07T09:51:13;8.33;;;7.40;;
1699;SDS011;847;48.058;7.810;2023-05-07T09:53:47;9.23;;;8.37;;
1699;SDS011;847;48.058;7.810;2023-05-07T09:56:17;7.50;;;6.77;;
1699;SDS011;847;48.058;7.810;2023-05-07T09:58:46;7.77;;;6.17;;
1699;SDS011;847;48.058;7.810;2023-05-07T10:01:13;5.73;;;5.23;;
1699;SDS011;847;48.058;7.810;2023-05-07T10:03:40;5.47;;;5.00;;
1699;SDS011;847;48.058;7.810;2023-05-07T10:06:08;6.70;;;6.10;;
1699;SDS011;847;48.058;7.810;2023-05-07T10:08:35;7.73;;;6.03;;
1699;SDS011;847;48.058;7.810;2023-05-07T10:11:03;6.23;;;4.80;;
1699;SDS011;847;48.058;7.810;2023-05-07T10:13:32;6.23;;;5.60;;
1699;SDS011;847;48.058;7.810;2023-05-07T10:16:00;5.87;;;5.27;;
1699;SDS011;847;48.058;7.810;2023-05-07T10:18:29;4.83;;;4.40;;
1699;SDS011;847;48.058;7.810;2023-05-07T10:20:59;6.17;;;3.70;;
1699;SDS011;847;48.058;7.810;2023-05-07T10:23:30;3.47;;;3.17;;
1699;SDS011;847;48.058;7.810;2023-05-07T10:25:59;4.50;;;4.17;;
1699;SDS011;847;48.058;7.810;2023-05-07T10:28:28;4.80;;;4.00;;
1699;SDS011;847;48.058;7.810;2023-05-07T10:31:03;5.10;;;4.60;;
1699;SDS011;847;48.058;7.810;2023-05-07T10:33:40;5.63;;;3.73;;
1699;SDS011;847;48.058;7.810;2023-05-07T10:36:10;6.93;;;4.27;;
1699;SDS011;847;48.058;7.810;2023-05-07T10:38:37;4.57;;;4.17;;
1699;SDS011;847;48.058;7.810;2023-05-07T10:41:05;4.93;;;4.47;;
1699;SDS011;847;48.058;7.810;2023-05-07T10:43:39;4.93;;;4.50;;
1699;SDS011;847;48.058;7.810;2023-05-07T10:46:11;6.60;;;5.00;;
1699;SDS011;847;48.058;7.810;2023-05-07T10:51:37;8.93;;;5.07;;
1699;SDS011;847;48.058;7.810;2023-05-07T10:54:20;6.13;;;5.50;;
1699;SDS011;847;48.058;7.810;2023-05-07T10:56:48;6.00;;;5.50;;
1699;SDS011;847;48.058;7.810;2023-05-07T11:02:10;6.57;;;5.97;;
1699;SDS011;847;48.058;7.810;2023-05-07T11:04:39;8.83;;;6.43;;
1699;SDS011;847;48.058;7.810;2023-05-07T11:07:25;7.43;;;6.07;;
1699;SDS011;847;48.058;7.810;2023-05-07T11:10:02;6.47;;;5.87;;
1699;SDS011;847;48.058;7.810;2023-05-07T11:18:08;7.33;;;6.60;;
1699;SDS011;847;48.058;7.810;2023-05-07T11:20:51;7.10;;;6.00;;
1699;SDS011;847;48.058;7.810;2023-05-07T11:26:24;6.10;;;5.50;;
1699;SDS011;847;48.058;7.810;2023-05-07T11:28:52;7.43;;;6.33;;
1699;SDS011;847;48.058;7.810;2023-05-07T11:31:23;7.53;;;6.50;;
1699;SDS011;847;48.058;7.810;2023-05-07T11:33:53;6.47;;;5.87;;
1699;SDS011;847;48.058;7.810;2023-05-07T11:36:21;6.27;;;5.60;;
1699;SDS011;847;48.058;7.810;2023-05-07T11:38:48;7.60;;;6.67;;
1699;SDS011;847;48.058;7.810;2023-05-07T11:41:16;6.70;;;5.80;;
1699;SDS011;847;48.058;7.810;2023-05-07T11:43:54;7.00;;;5.63;;
1699;SDS011;847;48.058;7.810;2023-05-07T11:46:22;5.10;;;4.70;;
1699;SDS011;847;48.058;7.810;2023-05-07T11:48:48;6.53;;;5.40;;
1699;SDS011;847;48.058;7.810;2023-05-07T11:51:19;5.50;;;5.00;;
1699;SDS011;847;48.058;7.810;2023-05-07T11:53:47;6.60;;;5.67;;
1699;SDS011;847;48.058;7.810;2023-05-07T11:56:15;6.33;;;5.40;;
1699;SDS011;847;48.058;7.810;2023-05-07T11:58:43;5.93;;;5.20;;
1699;SDS011;847;48.058;7.810;2023-05-07T12:01:12;8.83;;;6.00;;
1699;SDS011;847;48.058;7.810;2023-05-07T12:03:40;6.67;;;5.57;;
1699;SDS011;847;48.058;7.810;2023-05-07T12:06:08;6.10;;;5.50;;
1699;SDS011;847;48.058;7.810;2023-05-07T12:08:37;9.90;;;6.67;;
1699;SDS011;847;48.058;7.810;2023-05-07T12:11:06;6.80;;;6.20;;
1699;SDS011;847;48.058;7.810;2023-05-07T12:13:34;6.90;;;6.30;;
1699;SDS011;847;48.058;7.810;2023-05-07T12:16:01;6.40;;;5.80;;
1699;SDS011;847;48.058;7.810;2023-05-07T12:18:30;8.90;;;5.90;;
1699;SDS011;847;48.058;7.810;2023-05-07T12:20:57;6.23;;;5.73;;
1699;SDS011;847;48.058;7.810;2023-05-07T12:23:25;6.67;;;5.90;;
1699;SDS011;847;48.058;7.810;2023-05-07T12:25:53;8.03;;;6.50;;
1699;SDS011;847;48.058;7.810;2023-05-07T12:28:20;6.23;;;5.57;;
1699;SDS011;847;48.058;7.810;2023-05-07T12:30:47;6.60;;;6.10;;
1699;SDS011;847;48.058;7.810;2023-05-07T12:33:16;6.87;;;5.60;;
1699;SDS011;847;48.058;7.810;2023-05-07T12:35:46;5.13;;;4.73;;
1699;SDS011;847;48.058;7.810;2023-05-07T12:38:14;5.80;;;5.20;;
1699;SDS011;847;48.058;7.810;2023-05-07T12:40:43;6.10;;;5.47;;
1699;SDS011;847;48.058;7.810;2023-05-07T12:43:16;5.63;;;5.13;;
1699;SDS011;847;48.058;7.810;2023-05-07T12:45:44;6.13;;;5.33;;
1699;SDS011;847;48.058;7.810;2023-05-07T12:48:12;5.23;;;4.60;;
1699;SDS011;847;48.058;7.810;2023-05-07T12:50:39;5.77;;;5.20;;
1699;SDS011;847;48.058;7.810;2023-05-07T12:53:06;6.43;;;5.63;;
1699;SDS011;847;48.058;7.810;2023-05-07T12:55:39;7.67;;;5.10;;
1699;SDS011;847;48.058;7.810;2023-05-07T12:58:07;6.07;;;5.60;;
1699;SDS011;847;48.058;7.810;2023-05-07T13:00:36;5.77;;;5.27;;
1699;SDS011;847;48.058;7.810;2023-05-07T13:03:04;6.80;;;4.57;;
1699;SDS011;847;48.058;7.810;2023-05-07T13:05:31;5.70;;;5.20;;
1699;SDS011;847;48.058;7.810;2023-05-07T13:07:58;7.07;;;4.83;;
1699;SDS011;847;48.058;7.810;2023-05-07T13:10:25;5.43;;;4.93;;
1699;SDS011;847;48.058;7.810;2023-05-07T13:12:52;6.53;;;5.33;;
1699;SDS011;847;48.058;7.810;2023-05-07T13:15:19;6.13;;;5.53;;
1699;SDS011;847;48.058;7.810;2023-05-07T13:17:48;6.20;;;5.43;;
1699;SDS011;847;48.058;7.810;2023-05-07T13:20:15;5.27;;;4.80;;
1699;SDS011;847;48.058;7.810;2023-05-07T13:22:42;4.03;;;3.73;;
1699;SDS011;847;48.058;7.810;2023-05-07T13:25:08;5.03;;;4.40;;
1699;SDS011;847;48.058;7.810;2023-05-07T13:27:35;5.07;;;4.47;;
1699;SDS011;847;48.058;7.810;2023-05-07T13:30:03;5.43;;;3.90;;
1699;SDS011;847;48.058;7.810;2023-05-07T13:32:30;5.27;;;4.57;;
1699;SDS011;847;48.058;7.810;2023-05-07T13:34:58;5.50;;;5.10;;
1699;SDS011;847;48.058;7.810;2023-05-07T13:37:25;5.60;;;5.20;;
1699;SDS011;847;48.058;7.810;2023-05-07T13:39:52;6.03;;;5.50;;
1699;SDS011;847;48.058;7.810;2023-05-07T13:42:19;7.47;;;6.77;;
1699;SDS011;847;48.058;7.810;2023-05-07T13:44:45;5.87;;;5.37;;
1699;SDS011;847;48.058;7.810;2023-05-07T13:47:12;5.90;;;5.40;;
1699;SDS011;847;48.058;7.810;2023-05-07T13:49:39;6.13;;;5.63;;
1699;SDS011;847;48.058;7.810;2023-05-07T13:52:07;5.70;;;5.20;;
1699;SDS011;847;48.058;7.810;2023-05-07T13:54:33;5.40;;;5.00;;
1699;SDS011;847;48.058;7.810;2023-05-07T13:57:00;5.53;;;5.03;;
1699;SDS011;847;48.058;7.810;2023-05-07T13:59:27;4.57;;;4.17;;
1699;SDS011;847;48.058;7.810;2023-05-07T14:01:54;4.43;;;4.03;;
1699;SDS011;847;48.058;7.810;2023-05-07T14:04:21;4.07;;;3.67;;
1699;SDS011;847;48.058;7.810;2023-05-07T14:06:47;3.13;;;2.47;;
1699;SDS011;847;48.058;7.810;2023-05-07T14:09:15;3.27;;;2.17;;
1699;SDS011;847;48.058;7.810;2023-05-07T14:11:42;3.03;;;2.73;;
1699;SDS011;847;48.058;7.810;2023-05-07T14:14:10;2.90;;;2.53;;
1699;SDS011;847;48.058;7.810;2023-05-07T14:16:37;2.70;;;2.50;;
1699;SDS011;847;48.058;7.810;2023-05-07T14:19:03;2.80;;;2.60;;
1699;SDS011;847;48.058;7.810;2023-05-07T14:21:30;6.30;;;3.93;;
1699;SDS011;847;48.058;7.810;2023-05-07T14:23:57;3.13;;;2.93;;
1699;SDS011;847;48.058;7.810;2023-05-07T14:26:26;2.50;;;2.30;;
1699;SDS011;847;48.058;7.810;2023-05-07T14:28:53;4.13;;;2.63;;
1699;SDS011;847;48.058;7.810;2023-05-07T14:31:22;3.43;;;2.97;;
1699;SDS011;847;48.058;7.810;2023-05-07T14:33:49;5.43;;;3.30;;
1699;SDS011;847;48.058;7.810;2023-05-07T14:36:15;3.70;;;3.27;;
1699;SDS011;847;48.058;7.810;2023-05-07T14:38:42;3.50;;;3.20;;
1699;SDS011;847;48.058;7.810;2023-05-07T14:41:09;4.20;;;3.80;;
1699;SDS011;847;48.058;7.810;2023-05-07T14:43:37;4.27;;;3.87;;
1699;SDS011;847;48.058;7.810;2023-05-07T14:46:04;4.47;;;3.80;;
1699;SDS011;847;48.058;7.810;2023-05-07T14:48:31;3.67;;;3.30;;
1699;SDS011;847;48.058;7.810;2023-05-07T14:50:58;3.90;;;3.60;;
1699;SDS011;847;48.058;7.810;2023-05-07T14:53:24;3.40;;;3.10;;
1699;SDS011;847;48.058;7.810;2023-05-07T14:55:51;4.07;;;3.57;;
1699;SDS011;847;48.058;7.810;2023-05-07T14:58:18;3.63;;;3.33;;
1699;SDS011;847;48.058;7.810;2023-05-07T15:00:49;3.40;;;3.10;;
1699;SDS011;847;48.058;7.810;2023-05-07T15:03:17;3.20;;;3.00;;
1699;SDS011;847;48.058;7.810;2023-05-07T15:05:44;5.20;;;3.70;;
1699;SDS011;847;48.058;7.810;2023-05-07T15:08:11;4.20;;;3.80;;
1699;SDS011;847;48.058;7.810;2023-05-07T15:10:38;4.57;;;3.20;;
1699;SDS011;847;48.058;7.810;2023-05-07T15:13:06;4.90;;;3.60;;
1699;SDS011;847;48.058;7.810;2023-05-07T15:15:33;4.03;;;3.73;;
1699;SDS011;847;48.058;7.810;2023-05-07T15:18:02;5.33;;;3.70;;
1699;SDS011;847;48.058;7.810;2023-05-07T15:20:29;4.43;;;4.03;;
1699;SDS011;847;48.058;7.810;2023-05-07T15:22:55;4.80;;;4.40;;
1699;SDS011;847;48.058;7.810;2023-05-07T15:25:23;4.00;;;3.60;;
1699;SDS011;847;48.058;7.810;2023-05-07T15:27:50;3.17;;;2.97;;
1699;SDS011;847;48.058;7.810;2023-05-07T15:30:17;4.30;;;3.90;;
1699;SDS011;847;48.058;7.810;2023-05-07T15:32:45;3.07;;;2.63;;
1699;SDS011;847;48.058;7.810;2023-05-07T15:35:13;4.43;;;3.50;;
1699;SDS011;847;48.058;7.810;2023-05-07T15:37:40;3.60;;;3.30;;
1699;SDS011;847;48.058;7.810;2023-05-07T15:40:07;5.03;;;3.70;;
1699;SDS011;847;48.058;7.810;2023-05-07T15:42:38;4.33;;;3.93;;
1699;SDS011;847;48.058;7.810;2023-05-07T15:45:05;3.93;;;3.63;;
1699;SDS011;847;48.058;7.810;2023-05-07T15:47:33;3.97;;;3.67;;